sensor_id;sensor_type;location;lat;lon;timestamp;P1;durP1;ratioP1;P2;durP2;ratioP2
54388;SDS011;40975;50.390;8.640;2023-04-06T00:00:02;3.53;;;1.80;;
54388;SDS011;40975;50.390;8.640;2023-04-06T00:02:34;4.25;;;2.40;;
54388;SDS011;40975;50.390;8.640;2023-04-06T00:05:00;4.97;;;2.40;;
54388;SDS011;40975;50.390;8.640;2023-04-06T00:07:26;2.90;;;2.05;;
54388;SDS011;40975;50.390;8.640;2023-04-06T00:09:53;5.20;;;2.03;;
54388;SDS011;40975;50.390;8.640;2023-04-06T00:12:18;4.53;;;2.10;;
54388;SDS011;40975;50.390;8.640;2023-04-06T00:14:43;4.55;;;2.45;;
54388;SDS011;40975;50.390;8.640;2023-04-06T00:17:09;2.85;;;2.28;;
54388;SDS011;40975;50.390;8.640;2023-04-06T00:19:34;3.83;;;2.25;;
54388;SDS011;40975;50.390;8.640;2023-04-06T00:22:00;6.60;;;1.48;;
54388;SDS011;40975;50.390;8.640;2023-04-06T00:24:27;3.70;;;2.35;;
54388;SDS011;40975;50.390;8.640;2023-04-06T00:26:52;2.53;;;1.67;;
54388;SDS011;40975;50.390;8.640;2023-04-06T00:29:17;3.33;;;2.17;;
54388;SDS011;40975;50.390;8.640;2023-04-06T00:31:43;5.05;;;2.35;;
54388;SDS011;40975;50.390;8.640;2023-04-06T00:34:09;6.28;;;2.47;;
54388;SDS011;40975;50.390;8.640;2023-04-06T00:36:34;3.45;;;2.10;;
54388;SDS011;40975;50.390;8.640;2023-04-06T00:39:00;5.50;;;2.28;;
54388;SDS011;40975;50.390;8.640;2023-04-06T00:41:25;2.38;;;1.52;;
54388;SDS011;40975;50.390;8.640;2023-04-06T00:43:50;3.28;;;1.88;;
54388;SDS011;40975;50.390;8.640;2023-04-06T00:46:16;4.22;;;1.92;;
54388;SDS011;40975;50.390;8.640;2023-04-06T00:48:41;4.63;;;1.80;;
54388;SDS011;40975;50.390;8.640;2023-04-06T00:51:07;8.90;;;2.40;;
54388;SDS011;40975;50.390;8.640;2023-04-06T00:53:32;2.10;;;1.73;;
54388;SDS011;40975;50.390;8.640;2023-04-06T00:55:59;3.03;;;1.70;;
54388;SDS011;40975;50.390;8.640;2023-04-06T00:58:25;3.58;;;2.17;;
54388;SDS011;40975;50.390;8.640;2023-04-06T01:00:59;3.92;;;1.85;;
54388;SDS011;40975;50.390;8.640;2023-04-06T01:03:24;3.40;;;1.95;;
54388;SDS011;40975;50.390;8.640;2023-04-06T01:05:51;4.15;;;2.67;;
54388;SDS011;40975;50.390;8.640;2023-04-06T01:08:24;4.18;;;2.10;;
54388;SDS011;40975;50.390;8.640;2023-04-06T01:10:54;3.20;;;2.00;;
54388;SDS011;40975;50.390;8.640;2023-04-06T01:15:55;3.25;;;2.15;;
54388;SDS011;40975;50.390;8.640;2023-04-06T01:18:33;3.20;;;2.33;;
54388;SDS011;40975;50.390;8.640;2023-04-06T01:21:17;3.13;;;1.73;;
54388;SDS011;40975;50.390;8.640;2023-04-06T01:23:59;4.20;;;1.98;;
54388;SDS011;40975;50.390;8.640;2023-04-06T01:26:33;4.03;;;1.70;;
54388;SDS011;40975;50.390;8.640;2023-04-06T01:29:03;3.50;;;2.03;;
54388;SDS011;40975;50.390;8.640;2023-04-06T01:31:29;3.45;;;1.77;;
54388;SDS011;40975;50.390;8.640;2023-04-06T01:33:54;2.40;;;2.15;;
54388;SDS011;40975;50.390;8.640;2023-04-06T01:36:23;5.32;;;2.22;;
54388;SDS011;40975;50.390;8.640;2023-04-06T01:38:58;3.83;;;2.10;;
54388;SDS011;40975;50.390;8.640;2023-04-06T01:41:31;4.30;;;2.08;;
54388;SDS011;40975;50.390;8.640;2023-04-06T01:43:56;3.17;;;1.63;;
54388;SDS011;40975;50.390;8.640;2023-04-06T01:46:25;2.20;;;1.83;;
54388;SDS011;40975;50.390;8.640;2023-04-06T01:48:51;4.43;;;2.03;;
54388;SDS011;40975;50.390;8.640;2023-04-06T01:51:22;3.72;;;1.90;;
54388;SDS011;40975;50.390;8.640;2023-04-06T01:53:57;4.15;;;2.08;;
54388;SDS011;40975;50.390;8.640;2023-04-06T01:56:30;2.60;;;2.03;;
54388;SDS011;40975;50.390;8.640;2023-04-06T01:59:06;4.43;;;2.05;;
54388;SDS011;40975;50.390;8.640;2023-04-06T02:01:37;4.30;;;2.20;;
54388;SDS011;40975;50.390;8.640;2023-04-06T02:04:03;3.90;;;2.17;;
54388;SDS011;40975;50.390;8.640;2023-04-06T02:06:28;3.42;;;1.70;;
54388;SDS011;40975;50.390;8.640;2023-04-06T02:08:55;5.55;;;2.42;;
54388;SDS011;40975;50.390;8.640;2023-04-06T02:11:20;3.50;;;2.13;;
54388;SDS011;40975;50.390;8.640;2023-04-06T02:13:49;7.90;;;2.65;;
54388;SDS011;40975;50.390;8.640;2023-04-06T02:16:15;2.25;;;1.88;;
54388;SDS011;40975;50.390;8.640;2023-04-06T02:18:42;3.38;;;1.92;;
54388;SDS011;40975;50.390;8.640;2023-04-06T02:21:07;3.28;;;1.67;;
54388;SDS011;40975;50.390;8.640;2023-04-06T02:23:33;3.30;;;2.17;;
54388;SDS011;40975;50.390;8.640;2023-04-06T02:25:58;3.85;;;2.22;;
54388;SDS011;40975;50.390;8.640;2023-04-06T02:28:23;3.92;;;2.33;;
54388;SDS011;40975;50.390;8.640;2023-04-06T02:30:49;3.85;;;1.85;;
54388;SDS011;40975;50.390;8.640;2023-04-06T02:33:15;2.47;;;2.08;;
54388;SDS011;40975;50.390;8.640;2023-04-06T02:35:44;3.00;;;2.05;;
54388;SDS011;40975;50.390;8.640;2023-04-06T02:38:10;2.78;;;1.92;;
54388;SDS011;40975;50.390;8.640;2023-04-06T02:40:36;3.33;;;2.10;;
54388;SDS011;40975;50.390;8.640;2023-04-06T02:43:12;3.15;;;2.40;;
54388;SDS011;40975;50.390;8.640;2023-04-06T02:45:38;3.65;;;2.22;;
54388;SDS011;40975;50.390;8.640;2023-04-06T02:48:04;3.88;;;1.85;;
54388;SDS011;40975;50.390;8.640;2023-04-06T02:50:31;6.97;;;2.33;;
54388;SDS011;40975;50.390;8.640;2023-04-06T02:53:00;4.13;;;2.75;;
54388;SDS011;40975;50.390;8.640;2023-04-06T02:55:26;3.45;;;2.40;;
54388;SDS011;40975;50.390;8.640;2023-04-06T02:57:51;5.47;;;2.50;;
54388;SDS011;40975;50.390;8.640;2023-04-06T03:00:20;9.75;;;2.22;;
54388;SDS011;40975;50.390;8.640;2023-04-06T03:02:46;4.93;;;2.47;;
54388;SDS011;40975;50.390;8.640;2023-04-06T03:05:14;6.97;;;2.35;;
54388;SDS011;40975;50.390;8.640;2023-04-06T03:07:42;4.00;;;2.83;;
54388;SDS011;40975;50.390;8.640;2023-04-06T03:10:13;3.60;;;2.17;;
54388;SDS011;40975;50.390;8.640;2023-04-06T03:12:39;3.10;;;1.83;;
54388;SDS011;40975;50.390;8.640;2023-04-06T03:15:12;3.80;;;2.42;;
54388;SDS011;40975;50.390;8.640;2023-04-06T03:17:42;3.90;;;2.35;;
54388;SDS011;40975;50.390;8.640;2023-04-06T03:20:14;6.10;;;2.42;;
54388;SDS011;40975;50.390;8.640;2023-04-06T03:22:39;5.07;;;3.28;;
54388;SDS011;40975;50.390;8.640;2023-04-06T03:25:08;3.45;;;2.20;;
54388;SDS011;40975;50.390;8.640;2023-04-06T03:27:33;3.30;;;2.40;;
54388;SDS011;40975;50.390;8.640;2023-04-06T03:30:01;4.03;;;1.98;;
54388;SDS011;40975;50.390;8.640;2023-04-06T03:32:32;5.38;;;2.67;;
54388;SDS011;40975;50.390;8.640;2023-04-06T03:34:57;4.05;;;2.72;;
54388;SDS011;40975;50.390;8.640;2023-04-06T03:37:24;3.60;;;2.10;;
54388;SDS011;40975;50.390;8.640;2023-04-06T03:39:53;4.43;;;3.10;;
54388;SDS011;40975;50.390;8.640;2023-04-06T03:42:22;4.03;;;2.33;;
54388;SDS011;40975;50.390;8.640;2023-04-06T03:44:51;5.65;;;2.55;;
54388;SDS011;40975;50.390;8.640;2023-04-06T03:47:17;4.63;;;2.50;;
54388;SDS011;40975;50.390;8.640;2023-04-06T03:49:43;4.50;;;2.65;;
54388;SDS011;40975;50.390;8.640;2023-04-06T03:52:10;2.95;;;1.55;;
54388;SDS011;40975;50.390;8.640;2023-04-06T03:54:36;3.67;;;2.40;;
54388;SDS011;40975;50.390;8.640;2023-04-06T03:57:01;3.75;;;2.50;;
54388;SDS011;40975;50.390;8.640;2023-04-06T03:59:27;3.55;;;2.45;;
54388;SDS011;40975;50.390;8.640;2023-04-06T04:01:53;4.85;;;2.72;;
54388;SDS011;40975;50.390;8.640;2023-04-06T04:04:18;5.10;;;2.50;;
54388;SDS011;40975;50.390;8.640;2023-04-06T04:06:44;4.00;;;2.45;;
54388;SDS011;40975;50.390;8.640;2023-04-06T04:09:09;4.78;;;2.38;;
54388;SDS011;40975;50.390;8.640;2023-04-06T04:11:34;6.13;;;2.42;;
54388;SDS011;40975;50.390;8.640;2023-04-06T04:14:00;6.13;;;2.75;;
54388;SDS011;40975;50.390;8.640;2023-04-06T04:16:25;5.82;;;3.00;;
54388;SDS011;40975;50.390;8.640;2023-04-06T04:18:51;5.90;;;2.75;;
54388;SDS011;40975;50.390;8.640;2023-04-06T04:21:16;7.32;;;3.38;;
54388;SDS011;40975;50.390;8.640;2023-04-06T04:23:42;6.05;;;3.40;;
54388;SDS011;40975;50.390;8.640;2023-04-06T04:26:07;5.68;;;3.03;;
54388;SDS011;40975;50.390;8.640;2023-04-06T04:28:33;9.73;;;3.38;;
54388;SDS011;40975;50.390;8.640;2023-04-06T04:30:58;8.80;;;3.75;;
54388;SDS011;40975;50.390;8.640;2023-04-06T04:33:24;7.55;;;3.88;;
54388;SDS011;40975;50.390;8.640;2023-04-06T04:35:53;6.65;;;4.32;;
54388;SDS011;40975;50.390;8.640;2023-04-06T04:38:20;4.95;;;3.00;;
54388;SDS011;40975;50.390;8.640;2023-04-06T04:40:50;6.97;;;3.97;;
54388;SDS011;40975;50.390;8.640;2023-04-06T04:43:16;6.35;;;3.67;;
54388;SDS011;40975;50.390;8.640;2023-04-06T04:45:41;5.45;;;3.63;;
54388;SDS011;40975;50.390;8.640;2023-04-06T04:48:30;5.32;;;3.17;;
54388;SDS011;40975;50.390;8.640;2023-04-06T04:50:59;6.18;;;3.33;;
54388;SDS011;40975;50.390;8.640;2023-04-06T04:53:30;4.90;;;3.00;;
54388;SDS011;40975;50.390;8.640;2023-04-06T04:56:01;9.05;;;3.47;;
54388;SDS011;40975;50.390;8.640;2023-04-06T04:58:27;9.02;;;3.38;;
54388;SDS011;40975;50.390;8.640;2023-04-06T05:00:55;4.75;;;3.05;;
54388;SDS011;40975;50.390;8.640;2023-04-06T05:03:22;5.30;;;2.70;;
54388;SDS011;40975;50.390;8.640;2023-04-06T05:05:55;7.95;;;3.30;;
54388;SDS011;40975;50.390;8.640;2023-04-06T05:08:23;6.72;;;3.00;;
54388;SDS011;40975;50.390;8.640;2023-04-06T05:10:49;5.43;;;2.85;;
54388;SDS011;40975;50.390;8.640;2023-04-06T05:13:15;8.13;;;3.30;;
54388;SDS011;40975;50.390;8.640;2023-04-06T05:15:42;4.47;;;2.65;;
54388;SDS011;40975;50.390;8.640;2023-04-06T05:18:18;5.63;;;3.05;;
54388;SDS011;40975;50.390;8.640;2023-04-06T05:20:44;7.53;;;3.70;;
54388;SDS011;40975;50.390;8.640;2023-04-06T05:23:10;6.57;;;3.45;;
54388;SDS011;40975;50.390;8.640;2023-04-06T05:25:36;5.82;;;4.20;;
54388;SDS011;40975;50.390;8.640;2023-04-06T05:28:12;9.57;;;3.75;;
54388;SDS011;40975;50.390;8.640;2023-04-06T05:30:39;9.38;;;4.25;;
54388;SDS011;40975;50.390;8.640;2023-04-06T05:33:07;6.70;;;3.67;;
54388;SDS011;40975;50.390;8.640;2023-04-06T05:35:46;5.55;;;3.67;;
54388;SDS011;40975;50.390;8.640;2023-04-06T05:38:12;5.32;;;3.40;;
54388;SDS011;40975;50.390;8.640;2023-04-06T05:40:38;6.47;;;3.67;;
54388;SDS011;40975;50.390;8.640;2023-04-06T05:43:07;6.55;;;3.63;;
54388;SDS011;40975;50.390;8.640;2023-04-06T05:45:33;6.30;;;3.70;;
54388;SDS011;40975;50.390;8.640;2023-04-06T05:48:02;6.22;;;3.28;;
54388;SDS011;40975;50.390;8.640;2023-04-06T05:50:29;5.10;;;3.83;;
54388;SDS011;40975;50.390;8.640;2023-04-06T05:52:55;6.03;;;3.88;;
54388;SDS011;40975;50.390;8.640;2023-04-06T05:55:23;7.93;;;3.40;;
54388;SDS011;40975;50.390;8.640;2023-04-06T05:57:58;6.45;;;3.05;;
54388;SDS011;40975;50.390;8.640;2023-04-06T06:00:24;5.50;;;3.17;;
54388;SDS011;40975;50.390;8.640;2023-04-06T06:03:00;7.15;;;3.67;;
54388;SDS011;40975;50.390;8.640;2023-04-06T06:05:29;6.93;;;4.10;;
54388;SDS011;40975;50.390;8.640;2023-04-06T06:07:59;6.57;;;3.42;;
54388;SDS011;40975;50.390;8.640;2023-04-06T06:10:27;6.70;;;4.13;;
54388;SDS011;40975;50.390;8.640;2023-04-06T06:12:53;5.22;;;3.47;;
54388;SDS011;40975;50.390;8.640;2023-04-06T06:15:18;6.40;;;4.40;;
54388;SDS011;40975;50.390;8.640;2023-04-06T06:17:46;9.45;;;3.97;;
54388;SDS011;40975;50.390;8.640;2023-04-06T06:20:12;6.40;;;3.90;;
54388;SDS011;40975;50.390;8.640;2023-04-06T06:22:38;6.55;;;4.40;;
54388;SDS011;40975;50.390;8.640;2023-04-06T06:25:07;6.85;;;4.55;;
54388;SDS011;40975;50.390;8.640;2023-04-06T06:27:32;9.30;;;4.68;;
54388;SDS011;40975;50.390;8.640;2023-04-06T06:29:58;8.55;;;4.72;;
54388;SDS011;40975;50.390;8.640;2023-04-06T06:32:24;8.13;;;5.22;;
54388;SDS011;40975;50.390;8.640;2023-04-06T06:34:51;6.22;;;4.40;;
54388;SDS011;40975;50.390;8.640;2023-04-06T06:37:17;6.43;;;4.05;;
54388;SDS011;40975;50.390;8.640;2023-04-06T06:39:43;5.68;;;3.60;;
54388;SDS011;40975;50.390;8.640;2023-04-06T06:42:09;4.90;;;3.70;;
54388;SDS011;40975;50.390;8.640;2023-04-06T06:44:51;7.07;;;3.90;;
54388;SDS011;40975;50.390;8.640;2023-04-06T06:47:17;5.97;;;4.03;;
54388;SDS011;40975;50.390;8.640;2023-04-06T06:49:43;4.88;;;3.97;;
54388;SDS011;40975;50.390;8.640;2023-04-06T06:52:08;5.70;;;3.95;;
54388;SDS011;40975;50.390;8.640;2023-04-06T06:54:33;5.35;;;4.13;;
54388;SDS011;40975;50.390;8.640;2023-04-06T06:56:59;9.27;;;4.25;;
54388;SDS011;40975;50.390;8.640;2023-04-06T06:59:25;7.13;;;4.15;;
54388;SDS011;40975;50.390;8.640;2023-04-06T07:01:52;6.55;;;3.90;;
54388;SDS011;40975;50.390;8.640;2023-04-06T07:04:18;6.30;;;4.40;;
54388;SDS011;40975;50.390;8.640;2023-04-06T07:06:44;6.50;;;4.20;;
54388;SDS011;40975;50.390;8.640;2023-04-06T07:09:09;4.97;;;4.00;;
54388;SDS011;40975;50.390;8.640;2023-04-06T07:11:35;7.53;;;4.80;;
54388;SDS011;40975;50.390;8.640;2023-04-06T07:14:00;8.57;;;4.75;;
54388;SDS011;40975;50.390;8.640;2023-04-06T07:16:25;8.07;;;4.90;;
54388;SDS011;40975;50.390;8.640;2023-04-06T07:18:53;7.30;;;4.82;;
54388;SDS011;40975;50.390;8.640;2023-04-06T07:21:18;9.32;;;4.88;;
54388;SDS011;40975;50.390;8.640;2023-04-06T07:23:44;7.22;;;4.47;;
54388;SDS011;40975;50.390;8.640;2023-04-06T07:26:10;4.90;;;3.90;;
54388;SDS011;40975;50.390;8.640;2023-04-06T07:28:36;8.45;;;4.35;;
54388;SDS011;40975;50.390;8.640;2023-04-06T07:31:01;7.13;;;4.93;;
54388;SDS011;40975;50.390;8.640;2023-04-06T07:33:27;8.10;;;5.55;;
54388;SDS011;40975;50.390;8.640;2023-04-06T07:35:55;5.13;;;4.32;;
54388;SDS011;40975;50.390;8.640;2023-04-06T07:38:22;6.50;;;4.90;;
54388;SDS011;40975;50.390;8.640;2023-04-06T07:40:48;6.47;;;4.70;;
54388;SDS011;40975;50.390;8.640;2023-04-06T07:43:14;7.10;;;5.28;;
54388;SDS011;40975;50.390;8.640;2023-04-06T07:45:40;8.50;;;5.55;;
54388;SDS011;40975;50.390;8.640;2023-04-06T07:48:05;6.78;;;5.13;;
54388;SDS011;40975;50.390;8.640;2023-04-06T07:50:31;8.65;;;5.18;;
54388;SDS011;40975;50.390;8.640;2023-04-06T07:52:57;9.27;;;5.72;;
54388;SDS011;40975;50.390;8.640;2023-04-06T07:55:23;7.60;;;4.95;;
54388;SDS011;40975;50.390;8.640;2023-04-06T07:57:48;8.95;;;5.15;;
54388;SDS011;40975;50.390;8.640;2023-04-06T08:00:14;6.55;;;5.15;;
54388;SDS011;40975;50.390;8.640;2023-04-06T08:02:39;7.43;;;5.57;;
54388;SDS011;40975;50.390;8.640;2023-04-06T08:05:05;11.82;;;5.10;;
54388;SDS011;40975;50.390;8.640;2023-04-06T08:07:30;8.90;;;6.30;;
54388;SDS011;40975;50.390;8.640;2023-04-06T08:09:56;8.45;;;5.47;;
54388;SDS011;40975;50.390;8.640;2023-04-06T08:12:21;7.10;;;5.25;;
54388;SDS011;40975;50.390;8.640;2023-04-06T08:14:47;6.50;;;5.30;;
54388;SDS011;40975;50.390;8.640;2023-04-06T08:17:12;7.05;;;5.15;;
54388;SDS011;40975;50.390;8.640;2023-04-06T08:19:38;7.28;;;5.50;;
54388;SDS011;40975;50.390;8.640;2023-04-06T08:22:03;6.40;;;5.32;;
54388;SDS011;40975;50.390;8.640;2023-04-06T08:24:28;8.85;;;6.00;;
54388;SDS011;40975;50.390;8.640;2023-04-06T08:26:54;9.20;;;5.70;;
54388;SDS011;40975;50.390;8.640;2023-04-06T08:29:19;8.45;;;5.57;;
54388;SDS011;40975;50.390;8.640;2023-04-06T08:31:45;7.30;;;5.88;;
54388;SDS011;40975;50.390;8.640;2023-04-06T08:34:10;7.85;;;5.78;;
54388;SDS011;40975;50.390;8.640;2023-04-06T08:36:35;6.88;;;5.80;;
54388;SDS011;40975;50.390;8.640;2023-04-06T08:39:01;7.65;;;6.13;;
54388;SDS011;40975;50.390;8.640;2023-04-06T08:41:26;9.68;;;6.60;;
54388;SDS011;40975;50.390;8.640;2023-04-06T08:43:54;9.32;;;6.25;;
54388;SDS011;40975;50.390;8.640;2023-04-06T08:46:23;7.87;;;5.83;;
54388;SDS011;40975;50.390;8.640;2023-04-06T08:48:54;8.20;;;5.47;;
54388;SDS011;40975;50.390;8.640;2023-04-06T08:51:20;7.10;;;6.40;;
54388;SDS011;40975;50.390;8.640;2023-04-06T08:53:48;6.47;;;5.78;;
54388;SDS011;40975;50.390;8.640;2023-04-06T08:56:15;8.75;;;6.57;;
54388;SDS011;40975;50.390;8.640;2023-04-06T08:58:41;7.47;;;6.10;;
54388;SDS011;40975;50.390;8.640;2023-04-06T09:01:07;8.10;;;6.30;;
54388;SDS011;40975;50.390;8.640;2023-04-06T09:03:39;9.55;;;6.97;;
54388;SDS011;40975;50.390;8.640;2023-04-06T09:06:05;7.38;;;6.10;;
54388;SDS011;40975;50.390;8.640;2023-04-06T09:08:32;9.75;;;7.50;;
54388;SDS011;40975;50.390;8.640;2023-04-06T09:10:59;15.93;;;10.13;;
54388;SDS011;40975;50.390;8.640;2023-04-06T09:13:26;7.85;;;6.05;;
54388;SDS011;40975;50.390;8.640;2023-04-06T09:15:58;8.25;;;6.65;;
54388;SDS011;40975;50.390;8.640;2023-04-06T09:18:31;9.70;;;7.18;;
54388;SDS011;40975;50.390;8.640;2023-04-06T09:21:01;10.57;;;6.80;;
54388;SDS011;40975;50.390;8.640;2023-04-06T09:23:27;9.95;;;6.60;;
54388;SDS011;40975;50.390;8.640;2023-04-06T09:26:04;9.20;;;5.97;;
54388;SDS011;40975;50.390;8.640;2023-04-06T09:28:40;7.60;;;5.30;;
54388;SDS011;40975;50.390;8.640;2023-04-06T09:31:15;8.13;;;6.20;;
54388;SDS011;40975;50.390;8.640;2023-04-06T09:33:43;12.45;;;7.32;;
54388;SDS011;40975;50.390;8.640;2023-04-06T09:36:10;10.60;;;6.07;;
54388;SDS011;40975;50.390;8.640;2023-04-06T09:38:36;10.30;;;5.47;;
54388;SDS011;40975;50.390;8.640;2023-04-06T09:41:03;9.27;;;5.90;;
54388;SDS011;40975;50.390;8.640;2023-04-06T09:43:29;10.25;;;5.85;;
54388;SDS011;40975;50.390;8.640;2023-04-06T09:45:55;9.63;;;6.35;;
54388;SDS011;40975;50.390;8.640;2023-04-06T09:48:22;8.73;;;5.57;;
54388;SDS011;40975;50.390;8.640;2023-04-06T09:50:49;10.63;;;6.50;;
54388;SDS011;40975;50.390;8.640;2023-04-06T09:53:17;7.38;;;5.60;;
54388;SDS011;40975;50.390;8.640;2023-04-06T09:55:44;10.02;;;5.75;;
54388;SDS011;40975;50.390;8.640;2023-04-06T09:58:13;7.97;;;5.45;;
54388;SDS011;40975;50.390;8.640;2023-04-06T10:05:57;8.53;;;5.27;;
54388;SDS011;40975;50.390;8.640;2023-04-06T10:08:29;10.30;;;5.82;;
54388;SDS011;40975;50.390;8.640;2023-04-06T10:10:59;8.13;;;5.43;;
54388;SDS011;40975;50.390;8.640;2023-04-06T10:13:25;9.85;;;5.35;;
54388;SDS011;40975;50.390;8.640;2023-04-06T10:15:51;9.52;;;5.10;;
54388;SDS011;40975;50.390;8.640;2023-04-06T10:18:17;9.43;;;5.85;;
54388;SDS011;40975;50.390;8.640;2023-04-06T10:20:43;12.93;;;5.95;;
54388;SDS011;40975;50.390;8.640;2023-04-06T10:26:19;7.20;;;4.78;;
54388;SDS011;40975;50.390;8.640;2023-04-06T10:28:41;8.23;;;5.85;;
54388;SDS011;40975;50.390;8.640;2023-04-06T10:31:08;10.70;;;5.90;;
54388;SDS011;40975;50.390;8.640;2023-04-06T10:33:34;9.77;;;5.68;;
54388;SDS011;40975;50.390;8.640;2023-04-06T10:36:09;9.30;;;5.40;;
54388;SDS011;40975;50.390;8.640;2023-04-06T10:38:58;10.25;;;6.03;;
54388;SDS011;40975;50.390;8.640;2023-04-06T10:41:35;8.65;;;5.72;;
54388;SDS011;40975;50.390;8.640;2023-04-06T10:44:05;9.85;;;6.38;;
54388;SDS011;40975;50.390;8.640;2023-04-06T10:46:31;10.38;;;6.40;;
54388;SDS011;40975;50.390;8.640;2023-04-06T10:48:58;8.52;;;5.45;;
54388;SDS011;40975;50.390;8.640;2023-04-06T10:51:37;10.95;;;5.82;;
54388;SDS011;40975;50.390;8.640;2023-04-06T10:54:03;9.73;;;4.88;;
54388;SDS011;40975;50.390;8.640;2023-04-06T10:56:30;7.70;;;5.00;;
54388;SDS011;40975;50.390;8.640;2023-04-06T10:58:56;9.32;;;5.32;;
54388;SDS011;40975;50.390;8.640;2023-04-06T11:01:23;10.85;;;6.28;;
54388;SDS011;40975;50.390;8.640;2023-04-06T11:03:52;7.70;;;5.40;;
54388;SDS011;40975;50.390;8.640;2023-04-06T11:06:27;11.75;;;5.93;;
54388;SDS011;40975;50.390;8.640;2023-04-06T11:08:54;9.65;;;5.15;;
54388;SDS011;40975;50.390;8.640;2023-04-06T11:11:21;8.65;;;5.65;;
54388;SDS011;40975;50.390;8.640;2023-04-06T11:16:18;10.43;;;5.57;;
54388;SDS011;40975;50.390;8.640;2023-04-06T11:18:52;10.52;;;4.95;;
54388;SDS011;40975;50.390;8.640;2023-04-06T11:26:31;8.50;;;5.03;;
54388;SDS011;40975;50.390;8.640;2023-04-06T11:29:01;11.50;;;5.32;;
54388;SDS011;40975;50.390;8.640;2023-04-06T11:31:27;8.77;;;5.13;;
54388;SDS011;40975;50.390;8.640;2023-04-06T11:33:56;8.45;;;5.38;;
54388;SDS011;40975;50.390;8.640;2023-04-06T11:36:21;12.98;;;5.70;;
54388;SDS011;40975;50.390;8.640;2023-04-06T11:38:47;7.57;;;5.18;;
54388;SDS011;40975;50.390;8.640;2023-04-06T11:41:12;9.13;;;5.55;;
54388;SDS011;40975;50.390;8.640;2023-04-06T11:43:38;8.95;;;4.40;;
54388;SDS011;40975;50.390;8.640;2023-04-06T11:46:03;6.95;;;4.05;;
54388;SDS011;40975;50.390;8.640;2023-04-06T11:48:30;8.55;;;4.43;;
54388;SDS011;40975;50.390;8.640;2023-04-06T11:50:56;6.80;;;4.10;;
54388;SDS011;40975;50.390;8.640;2023-04-06T11:53:23;7.32;;;4.20;;
54388;SDS011;40975;50.390;8.640;2023-04-06T11:55:48;7.88;;;4.68;;
54388;SDS011;40975;50.390;8.640;2023-04-06T11:58:14;9.80;;;5.13;;
54388;SDS011;40975;50.390;8.640;2023-04-06T12:00:39;9.63;;;4.28;;
54388;SDS011;40975;50.390;8.640;2023-04-06T12:03:10;7.85;;;4.45;;
54388;SDS011;40975;50.390;8.640;2023-04-06T12:05:35;8.30;;;4.60;;
54388;SDS011;40975;50.390;8.640;2023-04-06T12:08:01;9.98;;;5.30;;
54388;SDS011;40975;50.390;8.640;2023-04-06T12:10:26;8.68;;;4.95;;
54388;SDS011;40975;50.390;8.640;2023-04-06T12:12:52;8.60;;;4.30;;
54388;SDS011;40975;50.390;8.640;2023-04-06T12:15:17;9.70;;;5.32;;
54388;SDS011;40975;50.390;8.640;2023-04-06T12:17:42;9.23;;;4.57;;
54388;SDS011;40975;50.390;8.640;2023-04-06T12:20:08;13.25;;;6.13;;
54388;SDS011;40975;50.390;8.640;2023-04-06T12:22:34;10.60;;;5.32;;
54388;SDS011;40975;50.390;8.640;2023-04-06T12:24:59;9.45;;;5.72;;
54388;SDS011;40975;50.390;8.640;2023-04-06T12:27:25;9.18;;;6.22;;
54388;SDS011;40975;50.390;8.640;2023-04-06T12:29:50;11.50;;;5.93;;
54388;SDS011;40975;50.390;8.640;2023-04-06T12:32:16;11.98;;;6.18;;
54388;SDS011;40975;50.390;8.640;2023-04-06T12:34:41;9.90;;;4.65;;
54388;SDS011;40975;50.390;8.640;2023-04-06T12:37:06;8.68;;;4.45;;
54388;SDS011;40975;50.390;8.640;2023-04-06T12:39:32;5.68;;;3.78;;
54388;SDS011;40975;50.390;8.640;2023-04-06T12:41:57;7.53;;;4.22;;
54388;SDS011;40975;50.390;8.640;2023-04-06T12:44:23;9.30;;;4.80;;
54388;SDS011;40975;50.390;8.640;2023-04-06T12:46:48;8.35;;;4.45;;
54388;SDS011;40975;50.390;8.640;2023-04-06T12:49:13;10.50;;;6.25;;
54388;SDS011;40975;50.390;8.640;2023-04-06T12:51:41;12.63;;;6.50;;
54388;SDS011;40975;50.390;8.640;2023-04-06T12:54:07;10.50;;;6.15;;
54388;SDS011;40975;50.390;8.640;2023-04-06T12:56:32;9.02;;;4.82;;
54388;SDS011;40975;50.390;8.640;2023-04-06T12:58:57;10.73;;;5.65;;
54388;SDS011;40975;50.390;8.640;2023-04-06T13:01:23;10.20;;;5.80;;
54388;SDS011;40975;50.390;8.640;2023-04-06T13:03:48;9.90;;;4.93;;
54388;SDS011;40975;50.390;8.640;2023-04-06T13:06:14;6.85;;;4.03;;
54388;SDS011;40975;50.390;8.640;2023-04-06T13:08:40;7.70;;;5.07;;
54388;SDS011;40975;50.390;8.640;2023-04-06T13:11:06;8.02;;;5.05;;
54388;SDS011;40975;50.390;8.640;2023-04-06T13:13:34;11.18;;;5.18;;
54388;SDS011;40975;50.390;8.640;2023-04-06T13:16:02;10.90;;;5.82;;
54388;SDS011;40975;50.390;8.640;2023-04-06T13:18:29;8.80;;;5.15;;
54388;SDS011;40975;50.390;8.640;2023-04-06T13:20:56;8.45;;;4.70;;
54388;SDS011;40975;50.390;8.640;2023-04-06T13:23:22;10.55;;;5.15;;
54388;SDS011;40975;50.390;8.640;2023-04-06T13:25:48;9.18;;;5.38;;
54388;SDS011;40975;50.390;8.640;2023-04-06T13:28:22;8.65;;;4.13;;
54388;SDS011;40975;50.390;8.640;2023-04-06T13:30:48;6.35;;;3.67;;
54388;SDS011;40975;50.390;8.640;2023-04-06T13:33:13;7.00;;;4.03;;
54388;SDS011;40975;50.390;8.640;2023-04-06T13:35:39;5.25;;;3.65;;
54388;SDS011;40975;50.390;8.640;2023-04-06T13:38:05;6.60;;;4.20;;
54388;SDS011;40975;50.390;8.640;2023-04-06T13:40:30;7.32;;;3.30;;
54388;SDS011;40975;50.390;8.640;2023-04-06T13:42:56;9.93;;;4.22;;
54388;SDS011;40975;50.390;8.640;2023-04-06T13:45:21;6.78;;;3.80;;
54388;SDS011;40975;50.390;8.640;2023-04-06T13:47:47;7.60;;;4.40;;
54388;SDS011;40975;50.390;8.640;2023-04-06T13:50:12;7.57;;;4.05;;
54388;SDS011;40975;50.390;8.640;2023-04-06T13:52:37;7.68;;;3.90;;
54388;SDS011;40975;50.390;8.640;2023-04-06T13:55:03;6.18;;;4.20;;
54388;SDS011;40975;50.390;8.640;2023-04-06T13:57:28;9.80;;;4.55;;
54388;SDS011;40975;50.390;8.640;2023-04-06T13:59:54;7.13;;;4.40;;
54388;SDS011;40975;50.390;8.640;2023-04-06T14:02:20;8.18;;;4.30;;
54388;SDS011;40975;50.390;8.640;2023-04-06T14:04:47;6.40;;;4.10;;
54388;SDS011;40975;50.390;8.640;2023-04-06T14:07:13;5.47;;;4.05;;
54388;SDS011;40975;50.390;8.640;2023-04-06T14:09:38;9.60;;;5.03;;
54388;SDS011;40975;50.390;8.640;2023-04-06T14:12:03;8.65;;;4.90;;
54388;SDS011;40975;50.390;8.640;2023-04-06T14:14:29;8.23;;;4.47;;
54388;SDS011;40975;50.390;8.640;2023-04-06T14:16:54;8.60;;;5.00;;
54388;SDS011;40975;50.390;8.640;2023-04-06T14:19:19;7.13;;;4.63;;
54388;SDS011;40975;50.390;8.640;2023-04-06T14:21:46;8.05;;;4.78;;
54388;SDS011;40975;50.390;8.640;2023-04-06T14:24:11;6.70;;;4.30;;
54388;SDS011;40975;50.390;8.640;2023-04-06T14:26:38;8.88;;;5.30;;
54388;SDS011;40975;50.390;8.640;2023-04-06T14:29:06;9.68;;;5.22;;
54388;SDS011;40975;50.390;8.640;2023-04-06T14:31:32;8.77;;;5.38;;
54388;SDS011;40975;50.390;8.640;2023-04-06T14:33:57;7.65;;;5.22;;
54388;SDS011;40975;50.390;8.640;2023-04-06T14:36:23;11.07;;;5.80;;
54388;SDS011;40975;50.390;8.640;2023-04-06T14:38:49;13.98;;;5.45;;
54388;SDS011;40975;50.390;8.640;2023-04-06T14:41:18;11.68;;;6.05;;
54388;SDS011;40975;50.390;8.640;2023-04-06T14:43:45;8.68;;;5.43;;
54388;SDS011;40975;50.390;8.640;2023-04-06T14:46:11;9.48;;;5.55;;
54388;SDS011;40975;50.390;8.640;2023-04-06T14:48:36;9.98;;;5.15;;
54388;SDS011;40975;50.390;8.640;2023-04-06T14:51:02;9.50;;;5.10;;
54388;SDS011;40975;50.390;8.640;2023-04-06T14:53:28;14.18;;;5.80;;
54388;SDS011;40975;50.390;8.640;2023-04-06T14:55:54;10.30;;;5.05;;
54388;SDS011;40975;50.390;8.640;2023-04-06T14:58:20;8.60;;;5.85;;
54388;SDS011;40975;50.390;8.640;2023-04-06T15:00:46;8.50;;;5.80;;
54388;SDS011;40975;50.390;8.640;2023-04-06T15:03:12;10.50;;;5.35;;